Time;durP1;ratioP1;P1;durP2;ratioP2;P2;SDS_P1;SDS_P2;PMS_P1;PMS_P2;Temp;Humidity;BMP_temperature;BMP_pressure;BME280_temperature;BME280_humidity;BME280_pressure;Samples;Min_cycle;Max_cycle;Signal;HPM_P1;HPM_P2
2022/09/05 00:02:03;;;;;;;3.35;2.47;;;;;;;;;;5004083;28;20066;-61
2022/09/05 00:05:05;;;;;;;3.05;2.25;;;;;;;;;;5000888;28;20057;-59
2022/09/05 00:07:49;;;;;;;2.40;2.20;;;;;;;;;;4997945;28;20092;-59
2022/09/05 00:10:25;;;;;;;2.85;2.00;;;;;;;;;;5003442;28;20080;-59
2022/09/05 00:12:55;;;;;;;2.53;2.10;;;;;;;;;;5000220;28;20061;-61
2022/09/05 00:15:51;;;;;;;2.47;2.00;;;;;;;;;;4999116;28;20042;-59
2022/09/05 00:18:40;;;;;;;3.50;2.15;;;;;;;;;;4988447;28;20042;-60
2022/09/05 00:21:18;;;;;;;5.03;2.25;;;;;;;;;;4984647;28;20088;-59
2022/09/05 00:24:14;;;;;;;2.25;2.00;;;;;;;;;;5004972;28;20049;-60
2022/09/05 00:27:03;;;;;;;5.32;2.80;;;;;;;;;;4970491;28;20060;-60
2022/09/05 00:29:51;;;;;;;3.30;2.10;;;;;;;;;;5002088;28;20046;-57
2022/09/05 00:32:31;;;;;;;2.72;2.30;;;;;;;;;;5002809;28;20499;-59
2022/09/05 00:35:34;;;;;;;5.50;2.28;;;;;;;;;;4999474;28;20046;-60
2022/09/05 00:38:11;;;;;;;3.72;1.98;;;;;;;;;;5005124;28;20050;-59
2022/09/05 00:40:47;;;;;;;2.33;1.90;;;;;;;;;;5005590;28;20050;-59
2022/09/05 00:43:20;;;;;;;5.25;2.00;;;;;;;;;;4989578;28;20940;-58
2022/09/05 00:46:11;;;;;;;2.72;1.90;;;;;;;;;;4986666;28;20478;-59
2022/09/05 00:49:02;;;;;;;2.33;1.90;;;;;;;;;;5002357;28;20137;-60
2022/09/05 00:51:49;;;;;;;2.58;2.17;;;;;;;;;;4995573;28;20060;-59
2022/09/05 00:54:23;;;;;;;2.58;2.20;;;;;;;;;;4988123;28;20129;-59
2022/09/05 00:57:29;;;;;;;3.50;1.85;;;;;;;;;;5002265;28;20092;-59
2022/09/05 01:00:21;;;;;;;2.53;2.08;;;;;;;;;;5002767;28;20050;-58
2022/09/05 01:03:08;;;;;;;5.05;2.00;;;;;;;;;;4999851;28;20365;-56
2022/09/05 01:05:39;;;;;;;2.10;1.90;;;;;;;;;;4980867;28;20046;-57
2022/09/05 01:08:44;;;;;;;1.88;1.77;;;;;;;;;;5000530;28;20050;-54
2022/09/05 01:11:28;;;;;;;4.00;2.15;;;;;;;;;;5002814;28;20048;-56
2022/09/05 01:14:21;;;;;;;2.88;2.08;;;;;;;;;;4995540;28;20662;-54
2022/09/05 01:17:21;;;;;;;2.30;2.08;;;;;;;;;;5000803;28;20076;-56
2022/09/05 01:20:27;;;;;;;2.50;2.03;;;;;;;;;;5003774;28;20072;-57
2022/09/05 01:23:25;;;;;;;2.50;2.25;;;;;;;;;;4995244;28;20085;-51
2022/09/05 01:26:20;;;;;;;3.88;2.30;;;;;;;;;;5001583;28;20046;-53
2022/09/05 01:28:58;;;;;;;3.13;2.10;;;;;;;;;;4971669;28;20173;-56
2022/09/05 01:31:49;;;;;;;5.32;2.10;;;;;;;;;;4998138;28;20490;-56
2022/09/05 01:34:26;;;;;;;3.33;2.13;;;;;;;;;;5000305;28;20042;-52
2022/09/05 01:37:06;;;;;;;2.60;2.38;;;;;;;;;;5000061;28;20066;-54
2022/09/05 01:39:34;;;;;;;3.00;2.13;;;;;;;;;;5001929;28;20050;-54
2022/09/05 01:42:24;;;;;;;3.42;2.35;;;;;;;;;;5000740;28;20073;-55
2022/09/05 01:45:03;;;;;;;2.47;2.05;;;;;;;;;;4999001;28;20050;-52
2022/09/05 01:47:50;;;;;;;2.60;2.40;;;;;;;;;;5002874;28;20041;-56
2022/09/05 01:50:39;;;;;;;4.85;2.05;;;;;;;;;;4998629;28;20057;-56
2022/09/05 01:53:26;;;;;;;4.43;2.20;;;;;;;;;;5001706;28;20089;-56
2022/09/05 01:56:17;;;;;;;3.05;2.17;;;;;;;;;;4999641;28;20137;-56
2022/09/05 01:58:52;;;;;;;5.70;2.08;;;;;;;;;;4994519;28;20099;-54
2022/09/05 02:01:55;;;;;;;2.90;2.60;;;;;;;;;;4986077;28;20148;-54
2022/09/05 02:05:05;;;;;;;2.63;2.42;;;;;;;;;;4992799;28;20046;-53
2022/09/05 02:08:12;;;;;;;3.50;2.28;;;;;;;;;;4982450;28;20049;-51
2022/09/05 02:11:13;;;;;;;3.90;2.33;;;;;;;;;;4985513;28;20042;-57
2022/09/05 02:14:02;;;;;;;3.15;2.42;;;;;;;;;;4988221;28;20314;-52
2022/09/05 02:16:37;;;;;;;2.67;2.47;;;;;;;;;;4987310;28;20562;-57
2022/09/05 02:19:08;;;;;;;3.20;2.28;;;;;;;;;;5002249;28;20050;-53
2022/09/05 02:21:35;;;;;;;3.47;2.67;;;;;;;;;;5000157;28;20057;-55
2022/09/05 02:24:14;;;;;;;4.30;2.42;;;;;;;;;;5001933;28;20052;-56
2022/09/05 02:27:04;;;;;;;4.03;2.63;;;;;;;;;;5001296;28;20164;-52
2022/09/05 02:29:46;;;;;;;2.95;2.35;;;;;;;;;;5003164;28;20104;-55
2022/09/05 02:32:41;;;;;;;3.97;2.60;;;;;;;;;;4996935;28;20062;-51
2022/09/05 02:35:09;;;;;;;3.47;2.28;;;;;;;;;;4998646;28;20116;-54
2022/09/05 02:37:44;;;;;;;3.47;2.40;;;;;;;;;;5001449;28;20050;-55
2022/09/05 02:40:35;;;;;;;2.53;2.08;;;;;;;;;;5002411;28;20050;-54
2022/09/05 02:43:06;;;;;;;3.78;2.47;;;;;;;;;;4999913;28;20474;-53
2022/09/05 02:45:50;;;;;;;4.18;2.40;;;;;;;;;;4996512;28;20499;-52
2022/09/05 02:48:39;;;;;;;3.40;2.65;;;;;;;;;;4993264;28;20423;-56
2022/09/05 02:51:36;;;;;;;4.43;2.40;;;;;;;;;;5001662;28;20041;-54
2022/09/05 02:54:15;;;;;;;6.38;2.53;;;;;;;;;;4993795;28;20308;-54
2022/09/05 02:56:56;;;;;;;3.80;2.63;;;;;;;;;;4997386;28;20065;-57
2022/09/05 02:59:41;;;;;;;2.58;2.30;;;;;;;;;;5000492;28;20659;-55
2022/09/05 03:02:16;;;;;;;2.47;2.28;;;;;;;;;;4991292;28;20074;-53
2022/09/05 03:04:50;;;;;;;2.83;2.50;;;;;;;;;;5012503;28;20397;-52
2022/09/05 03:07:42;;;;;;;4.88;2.40;;;;;;;;;;4998461;28;20083;-55
2022/09/05 03:10:52;;;;;;;2.30;2.13;;;;;;;;;;4979174;28;20664;-54
2022/09/05 03:13:43;;;;;;;2.60;2.40;;;;;;;;;;4997077;28;20042;-52
2022/09/05 03:16:42;;;;;;;2.83;2.38;;;;;;;;;;4993735;28;20046;-53
2022/09/05 03:19:29;;;;;;;2.40;2.20;;;;;;;;;;5005312;28;20138;-55
2022/09/05 03:22:27;;;;;;;4.60;2.65;;;;;;;;;;4999520;28;20058;-56
2022/09/05 03:25:20;;;;;;;2.53;2.30;;;;;;;;;;4998849;28;20455;-54
2022/09/05 03:28:46;;;;;;;2.88;2.40;;;;;;;;;;4997582;28;20057;-54
2022/09/05 03:31:26;;;;;;;5.20;2.47;;;;;;;;;;4917402;29;20078;-54
2022/09/05 03:34:15;;;;;;;3.88;2.40;;;;;;;;;;4996974;28;20052;-55
2022/09/05 03:36:53;;;;;;;2.58;2.38;;;;;;;;;;4998374;28;20462;-54
2022/09/05 03:39:43;;;;;;;3.75;2.33;;;;;;;;;;5005192;28;20045;-54
2022/09/05 03:42:09;;;;;;;3.28;2.50;;;;;;;;;;5002572;28;20096;-55
2022/09/05 03:45:05;;;;;;;4.03;2.30;;;;;;;;;;5004156;28;20420;-53
2022/09/05 03:47:56;;;;;;;3.45;2.60;;;;;;;;;;5004542;28;20046;-54
2022/09/05 03:50:54;;;;;;;4.57;2.42;;;;;;;;;;5000996;28;20069;-54
2022/09/05 03:53:46;;;;;;;3.70;2.60;;;;;;;;;;4994947;28;20046;-56
2022/09/05 03:56:45;;;;;;;5.45;2.85;;;;;;;;;;5005832;28;20077;-56
2022/09/05 03:59:48;;;;;;;3.10;2.70;;;;;;;;;;5001724;28;20089;-58
2022/09/05 04:02:29;;;;;;;4.47;3.10;;;;;;;;;;5000806;28;20218;-53
2022/09/05 04:05:00;;;;;;;3.10;2.80;;;;;;;;;;5007495;28;20129;-54
2022/09/05 04:07:29;;;;;;;4.13;2.58;;;;;;;;;;4997897;28;20042;-55
2022/09/05 04:10:12;;;;;;;4.57;2.40;;;;;;;;;;5007531;28;20068;-56
2022/09/05 04:12:56;;;;;;;4.57;3.00;;;;;;;;;;4997413;28;20125;-54
2022/09/05 04:15:37;;;;;;;2.72;2.35;;;;;;;;;;5004629;28;20044;-55
2022/09/05 04:18:11;;;;;;;2.33;2.08;;;;;;;;;;4997975;28;20582;-56
2022/09/05 04:20:39;;;;;;;3.70;2.50;;;;;;;;;;5002068;28;20030;-54
2022/09/05 04:23:31;;;;;;;4.07;2.40;;;;;;;;;;5008310;28;20049;-55
2022/09/05 04:26:12;;;;;;;3.05;2.53;;;;;;;;;;5001984;28;20046;-57
2022/09/05 04:29:35;;;;;;;3.50;2.70;;;;;;;;;;5000286;28;20042;-55
2022/09/05 04:32:27;;;;;;;3.17;2.47;;;;;;;;;;4980546;28;20085;-54
2022/09/05 04:35:11;;;;;;;3.35;2.63;;;;;;;;;;4977810;28;20478;-53
2022/09/05 04:37:46;;;;;;;3.42;2.90;;;;;;;;;;5006507;28;20038;-55
2022/09/05 04:40:46;;;;;;;2.95;2.65;;;;;;;;;;5003272;28;20049;-56
2022/09/05 04:43:42;;;;;;;6.40;2.45;;;;;;;;;;4988766;28;20060;-56
2022/09/05 04:46:22;;;;;;;3.90;2.78;;;;;;;;;;5002023;28;20064;-56
2022/09/05 04:49:03;;;;;;;3.25;2.80;;;;;;;;;;5004407;28;20046;-56
2022/09/05 04:51:57;;;;;;;4.00;2.80;;;;;;;;;;5002311;28;20092;-58
2022/09/05 04:54:34;;;;;;;3.42;2.75;;;;;;;;;;5002937;28;20050;-57
2022/09/05 04:57:18;;;;;;;3.92;3.20;;;;;;;;;;5004177;28;20080;-56
2022/09/05 04:59:52;;;;;;;3.97;3.10;;;;;;;;;;5003767;28;20087;-56
2022/09/05 05:02:33;;;;;;;3.03;2.70;;;;;;;;;;5001402;28;20085;-56
2022/09/05 05:05:01;;;;;;;4.57;2.80;;;;;;;;;;5005194;28;20083;-54
2022/09/05 05:07:37;;;;;;;4.32;3.13;;;;;;;;;;5003872;28;20113;-52
2022/09/05 05:10:07;;;;;;;3.45;2.80;;;;;;;;;;5004226;28;20092;-54
2022/09/05 05:12:56;;;;;;;6.65;3.05;;;;;;;;;;5001482;28;20495;-53
2022/09/05 05:15:25;;;;;;;4.10;3.30;;;;;;;;;;5001756;28;20132;-55
2022/09/05 05:18:19;;;;;;;4.65;3.08;;;;;;;;;;5002714;28;20084;-53
2022/09/05 05:21:07;;;;;;;4.00;3.00;;;;;;;;;;5000521;28;20502;-56
2022/09/05 05:23:39;;;;;;;6.32;3.35;;;;;;;;;;4998587;28;20053;-54
2022/09/05 05:26:25;;;;;;;8.57;4.03;;;;;;;;;;5000338;28;20109;-52
2022/09/05 05:29:15;;;;;;;5.70;3.60;;;;;;;;;;5001083;28;20104;-54
2022/09/05 05:31:50;;;;;;;8.38;3.38;;;;;;;;;;4999942;28;20080;-54
2022/09/05 05:34:24;;;;;;;7.90;3.80;;;;;;;;;;5002669;28;20062;-53
2022/09/05 05:37:28;;;;;;;5.72;3.38;;;;;;;;;;5004740;28;20069;-51
2022/09/05 05:39:57;;;;;;;10.85;3.83;;;;;;;;;;4968542;28;20049;-53
2022/09/05 05:42:23;;;;;;;8.43;3.70;;;;;;;;;;5000703;28;20089;-54
2022/09/05 05:44:52;;;;;;;9.15;3.63;;;;;;;;;;4998427;28;20468;-54
2022/09/05 05:47:21;;;;;;;7.25;3.53;;;;;;;;;;5002714;28;20408;-53
2022/09/05 05:49:49;;;;;;;13.38;4.13;;;;;;;;;;4997438;28;20053;-51
2022/09/05 05:52:37;;;;;;;5.25;3.60;;;;;;;;;;5003813;28;21417;-52
2022/09/05 05:55:15;;;;;;;4.55;3.35;;;;;;;;;;4999049;28;20056;-54
2022/09/05 05:58:21;;;;;;;5.43;3.83;;;;;;;;;;5002729;28;20129;-54
2022/09/05 06:01:07;;;;;;;5.75;3.70;;;;;;;;;;4997194;28;20514;-52
2022/09/05 06:03:51;;;;;;;4.15;3.75;;;;;;;;;;4995165;28;20038;-55
2022/09/05 06:06:27;;;;;;;8.45;4.00;;;;;;;;;;5003219;28;20045;-52
2022/09/05 06:09:21;;;;;;;4.22;3.75;;;;;;;;;;4998997;28;20048;-52
2022/09/05 06:12:05;;;;;;;4.13;3.70;;;;;;;;;;5003962;28;20085;-54
2022/09/05 06:15:08;;;;;;;5.82;3.92;;;;;;;;;;4994915;28;20484;-55
2022/09/05 06:17:52;;;;;;;4.97;3.85;;;;;;;;;;5005210;28;20046;-55
2022/09/05 06:21:06;;;;;;;9.32;3.58;;;;;;;;;;5002672;28;20049;-53
2022/09/05 06:23:56;;;;;;;5.20;3.30;;;;;;;;;;4955421;28;20053;-54
2022/09/05 06:26:48;;;;;;;5.68;3.42;;;;;;;;;;5001172;28;20637;-50
2022/09/05 06:29:57;;;;;;;5.32;3.45;;;;;;;;;;4999205;28;20050;-53
2022/09/05 06:32:52;;;;;;;4.65;2.92;;;;;;;;;;4999059;28;20061;-55
2022/09/05 06:35:23;;;;;;;4.43;3.35;;;;;;;;;;4995704;28;20046;-54
2022/09/05 06:38:27;;;;;;;6.50;2.92;;;;;;;;;;5002966;28;20058;-55
2022/09/05 06:41:18;;;;;;;5.57;3.30;;;;;;;;;;4998579;28;20444;-55
2022/09/05 06:44:21;;;;;;;5.38;3.40;;;;;;;;;;5000659;28;20061;-54
2022/09/05 06:46:54;;;;;;;5.15;3.15;;;;;;;;;;5003391;28;20057;-55
2022/09/05 06:49:24;;;;;;;3.90;2.85;;;;;;;;;;5004505;28;20061;-54
2022/09/05 06:52:26;;;;;;;12.32;4.80;;;;;;;;;;5002786;28;20155;-51
2022/09/05 06:55:22;;;;;;;3.97;2.92;;;;;;;;;;4998389;28;20042;-54
2022/09/05 06:58:09;;;;;;;6.03;3.05;;;;;;;;;;5002693;28;20081;-55
2022/09/05 07:00:47;;;;;;;4.05;3.28;;;;;;;;;;4996431;28;20133;-55
2022/09/05 07:03:21;;;;;;;8.52;3.33;;;;;;;;;;4995998;28;20041;-55
2022/09/05 07:06:07;;;;;;;5.57;3.70;;;;;;;;;;5002926;28;20037;-52
2022/09/05 07:09:07;;;;;;;6.05;3.00;;;;;;;;;;4999892;28;20125;-50
2022/09/05 07:11:54;;;;;;;8.95;3.35;;;;;;;;;;4998687;28;20062;-52
2022/09/05 07:14:27;;;;;;;7.50;3.50;;;;;;;;;;5002471;28;20045;-52
2022/09/05 07:17:15;;;;;;;7.65;3.22;;;;;;;;;;5000175;28;20165;-54
2022/09/05 07:19:54;;;;;;;6.30;3.20;;;;;;;;;;5006182;28;20045;-50
2022/09/05 07:22:31;;;;;;;3.58;3.28;;;;;;;;;;5004946;28;21264;-52
2022/09/05 07:25:00;;;;;;;7.60;3.78;;;;;;;;;;4999694;28;20050;-53
2022/09/05 07:27:42;;;;;;;8.60;3.70;;;;;;;;;;4995344;28;20061;-55
2022/09/05 07:30:09;;;;;;;6.22;3.80;;;;;;;;;;4999978;28;20038;-55
2022/09/05 07:32:42;;;;;;;6.07;3.13;;;;;;;;;;4996107;28;20471;-52
2022/09/05 07:35:18;;;;;;;5.90;3.05;;;;;;;;;;4994242;28;20121;-50
2022/09/05 07:37:47;;;;;;;4.43;3.33;;;;;;;;;;4993967;28;20054;-52
2022/09/05 07:40:18;;;;;;;9.05;3.25;;;;;;;;;;4998562;28;20413;-55
2022/09/05 07:42:55;;;;;;;8.18;3.45;;;;;;;;;;4997099;28;20171;-52
2022/09/05 07:45:24;;;;;;;7.10;3.00;;;;;;;;;;4997444;28;20041;-56
2022/09/05 07:48:04;;;;;;;6.68;3.13;;;;;;;;;;5000646;28;20068;-55
2022/09/05 07:50:31;;;;;;;5.10;2.80;;;;;;;;;;5006188;28;20042;-55
2022/09/05 07:53:03;;;;;;;11.15;3.15;;;;;;;;;;4999829;28;20053;-52
2022/09/05 07:55:33;;;;;;;6.40;2.97;;;;;;;;;;5005615;28;20092;-55
2022/09/05 07:58:01;;;;;;;4.75;2.85;;;;;;;;;;5003622;28;20054;-53
2022/09/05 08:00:29;;;;;;;4.07;2.50;;;;;;;;;;4994088;28;20058;-53
2022/09/05 08:02:58;;;;;;;7.28;2.83;;;;;;;;;;4996208;28;20031;-53
2022/09/05 08:05:27;;;;;;;5.53;2.58;;;;;;;;;;4994371;28;22653;-52
2022/09/05 08:07:56;;;;;;;3.90;3.00;;;;;;;;;;4994823;28;20053;-54
2022/09/05 08:10:26;;;;;;;8.43;3.08;;;;;;;;;;4997672;28;20049;-54
2022/09/05 08:13:00;;;;;;;8.80;3.00;;;;;;;;;;4995475;28;20616;-54
2022/09/05 08:15:28;;;;;;;4.63;2.35;;;;;;;;;;4994970;28;20050;-51
2022/09/05 08:18:08;;;;;;;4.07;2.65;;;;;;;;;;4993702;28;20147;-53
2022/09/05 08:20:57;;;;;;;8.38;2.13;;;;;;;;;;4997530;28;20189;-53
2022/09/05 08:23:32;;;;;;;8.35;2.53;;;;;;;;;;4997776;28;20464;-56
2022/09/05 08:26:27;;;;;;;4.93;2.33;;;;;;;;;;4998670;28;20046;-55
2022/09/05 08:29:02;;;;;;;6.03;1.90;;;;;;;;;;4977430;28;20053;-55
2022/09/05 08:31:36;;;;;;;6.80;1.92;;;;;;;;;;5000771;28;20041;-51
2022/09/05 08:34:10;;;;;;;4.50;1.65;;;;;;;;;;4997368;28;20539;-53
2022/09/05 08:36:47;;;;;;;7.10;1.70;;;;;;;;;;5004646;28;20055;-52
2022/09/05 08:39:19;;;;;;;3.30;2.28;;;;;;;;;;4992994;28;20037;-54
2022/09/05 08:42:21;;;;;;;3.88;1.52;;;;;;;;;;5003113;28;20109;-55
2022/09/05 08:44:59;;;;;;;6.07;1.90;;;;;;;;;;5000497;28;20050;-56
2022/09/05 08:48:16;;;;;;;7.55;1.88;;;;;;;;;;4998208;28;20043;-52
2022/09/05 08:51:03;;;;;;;8.02;1.52;;;;;;;;;;4983591;28;20065;-53
2022/09/05 08:54:00;;;;;;;8.15;1.67;;;;;;;;;;4999638;28;20085;-54
2022/09/05 08:56:39;;;;;;;3.00;1.60;;;;;;;;;;4995879;28;20069;-53
2022/09/05 08:59:22;;;;;;;3.00;1.63;;;;;;;;;;4996868;28;20145;-54
2022/09/05 09:01:54;;;;;;;6.40;1.73;;;;;;;;;;4993436;28;20068;-54
2022/09/05 09:04:33;;;;;;;4.73;1.50;;;;;;;;;;4997748;28;20104;-54
2022/09/05 09:07:24;;;;;;;3.50;1.50;;;;;;;;;;5002515;28;20408;-54
2022/09/05 09:10:01;;;;;;;6.40;1.60;;;;;;;;;;4997064;28;20053;-50
2022/09/05 09:12:49;;;;;;;4.63;1.40;;;;;;;;;;4990771;28;20061;-49
2022/09/05 09:15:45;;;;;;;4.63;1.33;;;;;;;;;;4997944;28;20960;-54
2022/09/05 09:18:18;;;;;;;2.33;1.50;;;;;;;;;;4993558;28;20038;-56
2022/09/05 09:20:51;;;;;;;3.53;1.88;;;;;;;;;;4998498;28;20033;-52
2022/09/05 09:23:35;;;;;;;2.08;1.55;;;;;;;;;;5004321;28;20056;-53
2022/09/05 09:26:15;;;;;;;6.15;2.45;;;;;;;;;;4995817;28;20061;-51
2022/09/05 09:28:43;;;;;;;2.30;1.85;;;;;;;;;;4996024;28;20465;-52
2022/09/05 09:31:14;;;;;;;2.00;1.45;;;;;;;;;;4996015;28;20042;-54
2022/09/05 09:33:49;;;;;;;2.30;1.30;;;;;;;;;;4996795;28;20995;-52
2022/09/05 09:36:30;;;;;;;2.65;1.17;;;;;;;;;;4998837;28;20077;-56
2022/09/05 09:39:10;;;;;;;5.35;1.90;;;;;;;;;;4988117;28;20048;-56
2022/09/05 09:41:44;;;;;;;3.85;1.33;;;;;;;;;;4998714;28;20423;-55
2022/09/05 09:44:47;;;;;;;5.38;1.38;;;;;;;;;;4998006;28;20100;-57
2022/09/05 09:47:17;;;;;;;3.75;1.33;;;;;;;;;;5000857;28;20483;-53
2022/09/05 09:49:46;;;;;;;3.67;1.10;;;;;;;;;;4995195;28;20057;-53
2022/09/05 09:52:38;;;;;;;5.78;1.55;;;;;;;;;;4998751;28;20069;-55
2022/09/05 09:55:22;;;;;;;;;;;;;;;;;;4995316;28;20468;-53
2022/09/05 09:58:12;;;;;;;5.82;1.67;;;;;;;;;;4993729;28;19922;-55
2022/09/05 10:01:20;;;;;;;1.88;1.10;;;;;;;;;;4997224;28;20081;-52
2022/09/05 10:04:17;;;;;;;2.10;1.30;;;;;;;;;;5007453;28;20100;-52
2022/09/05 10:07:09;;;;;;;1.80;1.30;;;;;;;;;;4993234;28;22009;-51
2022/09/05 10:09:47;;;;;;;5.70;2.05;;;;;;;;;;4996081;28;20041;-52
2022/09/05 10:12:35;;;;;;;3.47;1.85;;;;;;;;;;5001499;28;20038;-55
2022/09/05 10:15:13;;;;;;;4.68;1.98;;;;;;;;;;4994126;28;20038;-57
2022/09/05 10:17:44;;;;;;;5.60;1.98;;;;;;;;;;4997798;28;20103;-55
2022/09/05 10:20:13;;;;;;;3.90;1.80;;;;;;;;;;5000412;28;20061;-58
2022/09/05 10:23:06;;;;;;;1.40;1.10;;;;;;;;;;4998214;28;20045;-55
2022/09/05 10:25:31;;;;;;;;;;;;;;;;;;5008396;28;20100;-50
2022/09/05 10:28:00;;;;;;;2.47;1.40;;;;;;;;;;5000138;28;20596;-55
2022/09/05 10:31:04;;;;;;;5.05;1.77;;;;;;;;;;5002073;28;20411;-57
2022/09/05 10:34:02;;;;;;;5.88;1.70;;;;;;;;;;5001219;28;20106;-57
2022/09/05 10:36:30;;;;;;;5.40;1.95;;;;;;;;;;5003671;28;20107;-54
2022/09/05 10:38:59;;;;;;;4.40;1.35;;;;;;;;;;4997126;28;20033;-55
2022/09/05 10:41:42;;;;;;;4.47;2.30;;;;;;;;;;4999307;28;20049;-55
2022/09/05 10:44:12;;;;;;;4.50;1.65;;;;;;;;;;4994968;28;20062;-54
2022/09/05 10:47:15;;;;;;;3.42;1.77;;;;;;;;;;5000210;28;20045;-57
2022/09/05 10:49:48;;;;;;;2.42;1.10;;;;;;;;;;5000050;28;20042;-56
2022/09/05 10:52:26;;;;;;;4.18;1.55;;;;;;;;;;4997488;28;20510;-57
2022/09/05 10:55:10;;;;;;;3.25;1.60;;;;;;;;;;4994418;28;20042;-57
2022/09/05 10:58:03;;;;;;;2.38;1.35;;;;;;;;;;4995827;28;20034;-58
2022/09/05 11:00:40;;;;;;;4.38;1.67;;;;;;;;;;4984179;28;20507;-57
2022/09/05 11:03:12;;;;;;;4.75;1.52;;;;;;;;;;5003588;28;20050;-56
2022/09/05 11:05:50;;;;;;;8.63;1.50;;;;;;;;;;5003369;28;20113;-57
2022/09/05 11:08:32;;;;;;;3.90;1.45;;;;;;;;;;4987292;28;20573;-56
2022/09/05 11:11:06;;;;;;;2.15;1.42;;;;;;;;;;4989045;28;20130;-53
2022/09/05 11:13:53;;;;;;;4.80;1.25;;;;;;;;;;4993046;28;20050;-56
2022/09/05 11:16:25;;;;;;;3.42;1.27;;;;;;;;;;4995277;28;20140;-52
2022/09/05 11:18:59;;;;;;;2.65;1.40;;;;;;;;;;4994593;28;20089;-54
2022/09/05 11:22:06;;;;;;;2.95;1.65;;;;;;;;;;5000034;28;20057;-54
2022/09/05 11:24:54;;;;;;;1.60;1.35;;;;;;;;;;4940979;28;20461;-57
2022/09/05 11:27:39;;;;;;;3.78;1.38;;;;;;;;;;4984805;28;20136;-52
2022/09/05 11:30:32;;;;;;;5.05;1.65;;;;;;;;;;4988494;28;20038;-53
2022/09/05 11:33:40;;;;;;;3.35;1.60;;;;;;;;;;4998988;28;20089;-55
2022/09/05 11:36:28;;;;;;;2.63;1.30;;;;;;;;;;4992469;28;20038;-53
2022/09/05 11:39:23;;;;;;;2.15;1.40;;;;;;;;;;4989770;28;20041;-50
2022/09/05 11:41:57;;;;;;;4.80;1.40;;;;;;;;;;4928492;28;20048;-51
2022/09/05 11:44:46;;;;;;;4.15;1.20;;;;;;;;;;4989947;28;20054;-53
2022/09/05 11:47:49;;;;;;;4.82;1.15;;;;;;;;;;4995505;28;20061;-57
2022/09/05 11:50:41;;;;;;;;;;;;;;;;;;4996977;28;20212;-55
2022/09/05 11:53:55;;;;;;;3.08;1.45;;;;;;;;;;4990803;28;19925;-52
2022/09/05 11:56:43;;;;;;;4.07;1.45;;;;;;;;;;4993541;28;20504;-53
2022/09/05 11:59:16;;;;;;;2.15;1.20;;;;;;;;;;4998926;28;20054;-56
2022/09/05 12:02:07;;;;;;;2.47;1.25;;;;;;;;;;4997521;28;20045;-55
2022/09/05 12:04:46;;;;;;;3.60;1.63;;;;;;;;;;4998615;28;20133;-56
2022/09/05 12:07:31;;;;;;;2.35;1.30;;;;;;;;;;4998533;28;20056;-53
2022/09/05 12:10:21;;;;;;;2.10;1.20;;;;;;;;;;4997352;28;20840;-54
2022/09/05 12:13:12;;;;;;;2.33;1.30;;;;;;;;;;4993386;28;20062;-53
2022/09/05 12:15:43;;;;;;;2.53;1.35;;;;;;;;;;4998180;28;20066;-55
2022/09/05 12:18:21;;;;;;;3.33;1.60;;;;;;;;;;4998214;28;20041;-52
2022/09/05 12:20:57;;;;;;;3.65;1.42;;;;;;;;;;5000950;28;20506;-53
2022/09/05 12:23:55;;;;;;;2.85;1.45;;;;;;;;;;5000187;28;20543;-52
2022/09/05 12:26:33;;;;;;;1.40;1.30;;;;;;;;;;4997624;28;20061;-51
2022/09/05 12:29:22;;;;;;;4.28;1.40;;;;;;;;;;4996495;28;20100;-52
2022/09/05 12:31:52;;;;;;;1.75;1.15;;;;;;;;;;4992087;28;20128;-50
2022/09/05 12:34:54;;;;;;;1.08;0.98;;;;;;;;;;5001454;28;20046;-49
2022/09/05 12:37:22;;;;;;;4.13;1.40;;;;;;;;;;5000253;28;20465;-51
2022/09/05 12:39:57;;;;;;;1.70;1.25;;;;;;;;;;4995305;28;20058;-54
2022/09/05 12:42:38;;;;;;;2.35;1.35;;;;;;;;;;4998381;28;20564;-56
2022/09/05 12:45:17;;;;;;;1.75;1.33;;;;;;;;;;4999711;28;20038;-54
2022/09/05 12:48:11;;;;;;;2.03;1.40;;;;;;;;;;5005624;28;20494;-54
2022/09/05 12:51:02;;;;;;;2.17;1.13;;;;;;;;;;5003319;28;20062;-53
2022/09/05 12:53:48;;;;;;;1.40;1.20;;;;;;;;;;4997995;28;20058;-53
2022/09/05 12:56:25;;;;;;;1.67;1.23;;;;;;;;;;4998980;28;20042;-55
2022/09/05 12:58:53;;;;;;;3.13;1.08;;;;;;;;;;5001687;28;20607;-53
2022/09/05 13:01:26;;;;;;;3.90;1.40;;;;;;;;;;5004477;28;20385;-55
2022/09/05 13:04:04;;;;;;;2.88;1.45;;;;;;;;;;5001742;28;20492;-53
2022/09/05 13:06:37;;;;;;;2.28;1.15;;;;;;;;;;5005278;28;20095;-51
2022/09/05 13:09:18;;;;;;;1.08;1.00;;;;;;;;;;5000433;28;20120;-52
2022/09/05 13:12:03;;;;;;;1.80;1.00;;;;;;;;;;4998761;28;20033;-51
2022/09/05 13:14:31;;;;;;;1.70;1.00;;;;;;;;;;4995368;28;20049;-50
2022/09/05 13:16:59;;;;;;;1.30;1.10;;;;;;;;;;4999473;28;20045;-53
2022/09/05 13:19:38;;;;;;;2.13;1.20;;;;;;;;;;4999922;28;20057;-54
2022/09/05 13:22:05;;;;;;;1.70;1.20;;;;;;;;;;5004954;28;20100;-53
2022/09/05 13:24:37;;;;;;;2.17;1.00;;;;;;;;;;4998517;28;20042;-51
2022/09/05 13:27:06;;;;;;;3.03;1.05;;;;;;;;;;5001550;28;20034;-55
2022/09/05 13:30:05;;;;;;;5.93;1.52;;;;;;;;;;5000820;28;20103;-57
2022/09/05 13:32:37;;;;;;;2.08;1.00;;;;;;;;;;5006198;28;20060;-54
2022/09/05 13:35:18;;;;;;;1.30;1.20;;;;;;;;;;4995447;28;20217;-56
2022/09/05 13:37:48;;;;;;;1.75;0.88;;;;;;;;;;5002345;28;20054;-55
2022/09/05 13:40:21;;;;;;;3.58;1.15;;;;;;;;;;4999978;28;20514;-56
2022/09/05 13:42:55;;;;;;;1.40;1.00;;;;;;;;;;5000294;28;20054;-55
2022/09/05 13:45:21;;;;;;;25.13;2.40;;;;;;;;;;4997328;28;20442;-55
2022/09/05 13:48:01;;;;;;;2.20;1.13;;;;;;;;;;4999023;28;20081;-54
2022/09/05 13:50:35;;;;;;;1.67;1.30;;;;;;;;;;5000337;28;20054;-52
2022/09/05 13:53:08;;;;;;;2.28;1.10;;;;;;;;;;4999870;28;20759;-52
2022/09/05 13:55:57;;;;;;;2.47;0.93;;;;;;;;;;5000299;28;20560;-59
2022/09/05 13:58:43;;;;;;;1.77;1.40;;;;;;;;;;4998369;28;20046;-56
2022/09/05 14:01:33;;;;;;;2.13;1.23;;;;;;;;;;4998280;28;20092;-51
2022/09/05 14:04:04;;;;;;;1.98;1.00;;;;;;;;;;5004950;28;20118;-55
2022/09/05 14:06:50;;;;;;;2.08;1.20;;;;;;;;;;4999170;28;20064;-56
2022/09/05 14:09:58;;;;;;;1.30;1.20;;;;;;;;;;5001794;28;20053;-56
2022/09/05 14:12:40;;;;;;;1.40;1.10;;;;;;;;;;5002348;28;21314;-57
2022/09/05 14:15:20;;;;;;;3.60;1.25;;;;;;;;;;4990590;28;20031;-56
2022/09/05 14:18:24;;;;;;;3.50;1.17;;;;;;;;;;4993998;28;20076;-54
2022/09/05 14:21:17;;;;;;;1.35;1.05;;;;;;;;;;5000622;28;20222;-56
2022/09/05 14:24:03;;;;;;;1.23;1.10;;;;;;;;;;5000666;28;20045;-54
2022/09/05 14:26:40;;;;;;;1.35;1.08;;;;;;;;;;4987534;28;20398;-51
2022/09/05 14:29:17;;;;;;;1.88;1.10;;;;;;;;;;4986730;28;20049;-54
2022/09/05 14:31:55;;;;;;;3.50;1.15;;;;;;;;;;4988300;28;20065;-55
2022/09/05 14:34:52;;;;;;;2.80;1.13;;;;;;;;;;5002028;28;20057;-57
2022/09/05 14:37:56;;;;;;;1.52;0.90;;;;;;;;;;4999550;28;20377;-54
2022/09/05 14:40:43;;;;;;;1.10;0.95;;;;;;;;;;5001868;28;20050;-51
2022/09/05 14:43:19;;;;;;;2.92;1.20;;;;;;;;;;4997352;28;20130;-53
2022/09/05 14:46:18;;;;;;;0.90;0.90;;;;;;;;;;4998434;28;20081;-57
2022/09/05 14:49:11;;;;;;;1.90;0.93;;;;;;;;;;5008809;28;20487;-51
2022/09/05 14:51:36;;;;;;;0.90;0.90;;;;;;;;;;4992171;28;20132;-57
2022/09/05 14:54:25;;;;;;;0.90;0.90;;;;;;;;;;4995166;28;20169;-57
2022/09/05 14:56:57;;;;;;;1.25;1.08;;;;;;;;;;5002718;28;20125;-56
2022/09/05 14:59:27;;;;;;;2.55;1.10;;;;;;;;;;4999044;28;20081;-56
2022/09/05 15:02:15;;;;;;;2.85;1.02;;;;;;;;;;4993351;28;20435;-54
2022/09/05 15:04:43;;;;;;;2.67;1.08;;;;;;;;;;4998068;28;20522;-52
2022/09/05 15:07:19;;;;;;;2.65;1.08;;;;;;;;;;4999386;28;20424;-54
2022/09/05 15:09:46;;;;;;;0.80;0.80;;;;;;;;;;4996475;28;20052;-53
2022/09/05 15:12:19;;;;;;;1.65;0.90;;;;;;;;;;4996241;28;20118;-57
2022/09/05 15:15:06;;;;;;;1.52;0.90;;;;;;;;;;4999386;28;20383;-57
2022/09/05 15:17:32;;;;;;;1.77;1.10;;;;;;;;;;4994857;28;20623;-55
2022/09/05 15:20:06;;;;;;;0.80;0.80;;;;;;;;;;4998489;28;20173;-54
2022/09/05 15:22:34;;;;;;;1.13;0.95;;;;;;;;;;4998232;28;20403;-56
2022/09/05 15:25:24;;;;;;;8.93;1.20;;;;;;;;;;5000924;28;20058;-55
2022/09/05 15:27:50;;;;;;;4.85;1.20;;;;;;;;;;4999139;28;20491;-54
2022/09/05 15:30:20;;;;;;;2.85;1.10;;;;;;;;;;4994659;28;20052;-55
2022/09/05 15:32:46;;;;;;;3.80;1.50;;;;;;;;;;5002521;28;20069;-52
2022/09/05 15:35:42;;;;;;;1.63;1.13;;;;;;;;;;4997049;28;20110;-54
2022/09/05 15:38:22;;;;;;;2.92;0.90;;;;;;;;;;4992253;28;20050;-50
2022/09/05 15:41:09;;;;;;;1.30;0.90;;;;;;;;;;4999458;28;20050;-54
2022/09/05 15:43:57;;;;;;;2.35;1.17;;;;;;;;;;5001606;28;20451;-54
2022/09/05 15:46:50;;;;;;;1.55;0.90;;;;;;;;;;5001051;28;20065;-53
2022/09/05 15:49:57;;;;;;;1.55;1.15;;;;;;;;;;5000891;28;20050;-56
2022/09/05 15:52:22;;;;;;;0.80;0.77;;;;;;;;;;4946642;28;20055;-52
2022/09/05 15:54:56;;;;;;;1.08;0.90;;;;;;;;;;4993123;28;20050;-55
2022/09/05 15:57:31;;;;;;;1.15;0.80;;;;;;;;;;5005271;28;20150;-54
2022/09/05 16:00:00;;;;;;;1.67;0.88;;;;;;;;;;5003294;28;20042;-53
2022/09/05 16:02:32;;;;;;;0.75;0.70;;;;;;;;;;4995313;28;20125;-54
2022/09/05 16:05:09;;;;;;;1.63;0.90;;;;;;;;;;5000940;28;20419;-56
2022/09/05 16:07:46;;;;;;;1.17;1.00;;;;;;;;;;5002716;28;20101;-56
2022/09/05 16:10:26;;;;;;;1.40;1.08;;;;;;;;;;5001730;28;20053;-55
2022/09/05 16:12:54;;;;;;;0.80;0.80;;;;;;;;;;4998927;28;20470;-55
2022/09/05 16:15:31;;;;;;;3.20;1.08;;;;;;;;;;5000415;28;20456;-55
2022/09/05 16:18:08;;;;;;;2.13;1.00;;;;;;;;;;4998208;28;20046;-55